Time;durP1;ratioP1;P1;durP2;ratioP2;P2;SDS_P1;SDS_P2;PMS_P1;PMS_P2;Temp;Humidity;BMP_temperature;BMP_pressure;BME280_temperature;BME280_humidity;BME280_pressure;Samples;Min_cycle;Max_cycle;Signal;HPM_P1;HPM_P2
2023/08/15 00:00:55;;;;;;;7.18;5.38;;;20.50;99.90;;;;;;4900871;29;20444;-81
2023/08/15 00:03:20;;;;;;;7.78;5.03;;;20.50;99.90;;;;;;4900791;29;21073;-81
2023/08/15 00:05:46;;;;;;;6.38;4.90;;;20.50;99.90;;;;;;4900621;29;20024;-82
2023/08/15 00:08:11;;;;;;;9.13;5.05;;;20.50;99.90;;;;;;4900062;29;20035;-82
2023/08/15 00:10:37;;;;;;;8.90;4.93;;;20.50;99.90;;;;;;4899546;29;20044;-82
2023/08/15 00:13:03;;;;;;;6.15;5.25;;;20.50;99.90;;;;;;4902722;29;20032;-81
2023/08/15 00:15:30;;;;;;;6.18;4.60;;;20.50;99.90;;;;;;4903099;29;20122;-81
2023/08/15 00:17:55;;;;;;;8.18;5.50;;;20.40;99.90;;;;;;4903469;29;20031;-82
2023/08/15 00:20:21;;;;;;;10.73;6.00;;;20.40;99.90;;;;;;4903766;29;20024;-83
2023/08/15 00:22:47;;;;;;;8.48;5.95;;;20.40;99.90;;;;;;4903263;29;20037;-82
2023/08/15 00:25:13;;;;;;;8.25;5.45;;;20.40;99.90;;;;;;4905001;29;20092;-82
2023/08/15 00:27:38;;;;;;;6.00;4.97;;;20.30;99.90;;;;;;4902674;29;20088;-81
2023/08/15 00:30:05;;;;;;;12.38;6.03;;;20.30;99.90;;;;;;4903252;29;20044;-82
2023/08/15 00:32:35;;;;;;;7.05;5.70;;;20.30;99.90;;;;;;4903437;29;20032;-81
2023/08/15 00:35:04;;;;;;;8.10;5.82;;;20.20;99.90;;;;;;4904096;29;20031;-82
2023/08/15 00:37:33;;;;;;;8.20;5.97;;;20.20;99.90;;;;;;4904341;29;20035;-81
2023/08/15 00:40:00;;;;;;;11.38;6.22;;;20.20;99.90;;;;;;4902448;29;20031;-81
2023/08/15 00:42:26;;;;;;;8.90;5.55;;;20.20;99.90;;;;;;4903487;29;20036;-82
2023/08/15 00:44:52;;;;;;;8.75;5.53;;;20.20;99.90;;;;;;4903600;29;20043;-82
2023/08/15 00:47:19;;;;;;;12.02;6.20;;;20.20;99.90;;;;;;4902793;29;20043;-81
2023/08/15 00:49:45;;;;;;;7.95;5.47;;;20.10;99.90;;;;;;4903486;29;20451;-81
2023/08/15 00:52:12;;;;;;;10.60;5.43;;;20.10;99.90;;;;;;4903236;29;20035;-81
2023/08/15 00:54:39;;;;;;;8.57;5.32;;;20.10;99.90;;;;;;4903435;29;20047;-82
2023/08/15 00:57:06;;;;;;;8.15;5.47;;;20.10;99.90;;;;;;4904635;29;20041;-81
2023/08/15 00:59:32;;;;;;;8.85;5.22;;;20.00;99.90;;;;;;4905477;29;21534;-81
2023/08/15 01:01:59;;;;;;;8.93;5.65;;;20.00;99.90;;;;;;4904087;29;20043;-81
2023/08/15 01:04:25;;;;;;;7.10;5.18;;;20.00;99.90;;;;;;4903602;29;20032;-81
2023/08/15 01:06:51;;;;;;;7.05;5.20;;;20.00;99.90;;;;;;4904478;29;20036;-81
2023/08/15 01:09:16;;;;;;;6.28;5.68;;;20.00;99.90;;;;;;4903760;29;20444;-82
2023/08/15 01:11:56;;;;;;;6.40;5.35;;;20.00;99.90;;;;;;4904917;29;20028;-82
2023/08/15 01:14:26;;;;;;;7.97;5.00;;;19.90;99.90;;;;;;4905448;29;20064;-81
2023/08/15 01:16:52;;;;;;;8.48;5.80;;;19.90;99.90;;;;;;4901285;29;20508;-82
2023/08/15 01:19:33;;;;;;;10.93;5.85;;;19.90;99.90;;;;;;4903796;29;20068;-81
2023/08/15 01:22:03;;;;;;;8.73;5.72;;;19.80;99.90;;;;;;4904438;29;20039;-82
2023/08/15 01:24:30;;;;;;;8.88;5.90;;;19.80;99.90;;;;;;4904348;29;20036;-81
2023/08/15 01:26:56;;;;;;;8.02;5.68;;;19.80;99.90;;;;;;4902047;29;20033;-82
2023/08/15 01:29:21;;;;;;;6.60;6.00;;;19.80;99.90;;;;;;4901788;29;20035;-81
2023/08/15 01:32:09;;;;;;;6.70;5.25;;;19.80;99.90;;;;;;4904253;29;20778;-82
2023/08/15 01:34:42;;;;;;;6.07;5.47;;;19.80;99.90;;;;;;4901959;29;20113;-82
2023/08/15 01:37:16;;;;;;;10.43;5.88;;;19.70;99.90;;;;;;4904005;29;20418;-82
2023/08/15 01:39:44;;;;;;;10.90;6.13;;;19.70;99.90;;;;;;4902760;29;20040;-82
2023/08/15 01:42:11;;;;;;;8.05;6.25;;;19.70;99.90;;;;;;4903995;29;20087;-82
2023/08/15 01:44:37;;;;;;;8.40;5.55;;;19.70;99.90;;;;;;4903834;29;20575;-81
2023/08/15 01:47:03;;;;;;;9.20;5.97;;;19.70;99.90;;;;;;4903063;29;20029;-82
2023/08/15 01:49:28;;;;;;;6.45;5.70;;;19.60;99.90;;;;;;4901509;29;20084;-82
2023/08/15 01:51:54;;;;;;;6.75;5.47;;;19.60;99.90;;;;;;4903450;29;20025;-81
2023/08/15 01:54:20;;;;;;;6.53;5.72;;;19.60;99.90;;;;;;4903175;29;20035;-81
2023/08/15 01:56:45;;;;;;;8.27;5.97;;;19.50;99.90;;;;;;4902438;29;20043;-81
2023/08/15 01:59:11;;;;;;;6.93;5.30;;;19.50;99.90;;;;;;4903616;29;20024;-82
2023/08/15 02:01:36;;;;;;;7.03;5.30;;;19.50;99.90;;;;;;4903939;29;20068;-82
2023/08/15 02:04:02;;;;;;;9.55;6.00;;;19.40;99.90;;;;;;4904982;29;20032;-82
2023/08/15 02:06:28;;;;;;;8.57;5.93;;;19.40;99.90;;;;;;4906614;29;20046;-82
2023/08/15 02:08:53;;;;;;;6.70;5.85;;;19.40;99.90;;;;;;4905812;29;20044;-82
2023/08/15 02:11:19;;;;;;;8.60;5.88;;;19.40;99.90;;;;;;4907154;29;20040;-82
2023/08/15 02:13:44;;;;;;;9.13;5.72;;;19.40;99.90;;;;;;4904745;29;20579;-81
2023/08/15 02:16:10;;;;;;;7.32;5.40;;;19.30;99.90;;;;;;4905982;29;20481;-82
2023/08/15 02:18:35;;;;;;;8.40;6.10;;;19.30;99.90;;;;;;4906104;29;20522;-82
2023/08/15 02:21:01;;;;;;;7.80;5.65;;;19.30;99.90;;;;;;4904887;29;21020;-83
2023/08/15 02:23:26;;;;;;;6.38;5.63;;;19.30;99.90;;;;;;4905746;29;20032;-82
2023/08/15 02:25:52;;;;;;;12.82;6.75;;;19.30;99.90;;;;;;4903152;29;20028;-83
2023/08/15 02:28:17;;;;;;;7.00;5.50;;;19.30;99.90;;;;;;4906102;29;20416;-81
2023/08/15 02:30:43;;;;;;;6.43;5.45;;;19.20;99.90;;;;;;4904796;29;20028;-82
2023/08/15 02:33:08;;;;;;;13.43;5.70;;;19.20;99.90;;;;;;4906171;29;20016;-81
2023/08/15 02:35:39;;;;;;;8.80;5.60;;;19.20;99.90;;;;;;4905706;29;20040;-82
2023/08/15 02:38:04;;;;;;;7.05;5.20;;;19.10;99.90;;;;;;4907059;29;20035;-82
2023/08/15 02:40:30;;;;;;;7.22;5.70;;;19.10;99.90;;;;;;4906541;29;20020;-82
2023/08/15 02:42:55;;;;;;;7.68;5.65;;;19.10;99.90;;;;;;4904941;29;20044;-82
2023/08/15 02:45:21;;;;;;;7.80;5.15;;;19.10;99.90;;;;;;4905709;29;20028;-82
2023/08/15 02:47:47;;;;;;;6.65;5.28;;;19.10;99.90;;;;;;4907120;29;20032;-81
2023/08/15 02:50:12;;;;;;;5.97;5.38;;;19.10;99.90;;;;;;4905985;29;20040;-82
2023/08/15 02:52:38;;;;;;;9.38;5.35;;;19.00;99.90;;;;;;4907073;29;20035;-81
2023/08/15 02:55:04;;;;;;;7.50;5.30;;;19.00;99.90;;;;;;4908226;29;20032;-82
2023/08/15 02:57:30;;;;;;;8.40;5.40;;;19.00;99.90;;;;;;4906018;29;20038;-81
2023/08/15 02:59:56;;;;;;;7.45;5.45;;;19.00;99.90;;;;;;4907204;29;20526;-81
2023/08/15 03:02:22;;;;;;;6.07;5.18;;;18.90;99.90;;;;;;4907166;29;20043;-81
2023/08/15 03:04:48;;;;;;;6.28;5.60;;;18.90;99.90;;;;;;4906047;29;20032;-81
2023/08/15 03:07:14;;;;;;;9.93;5.28;;;18.90;99.90;;;;;;4906484;29;20061;-82
2023/08/15 03:09:39;;;;;;;7.95;5.07;;;18.90;99.90;;;;;;4906030;29;20071;-81
2023/08/15 03:12:06;;;;;;;7.40;5.40;;;18.80;99.90;;;;;;4906278;29;20055;-81
2023/08/15 03:14:31;;;;;;;7.13;5.00;;;18.80;99.90;;;;;;4905425;29;20036;-82
2023/08/15 03:16:57;;;;;;;6.85;4.90;;;18.80;99.90;;;;;;4904522;29;20032;-82
2023/08/15 03:19:22;;;;;;;7.65;5.00;;;18.80;99.90;;;;;;4905527;29;20748;-82
2023/08/15 03:21:48;;;;;;;8.52;5.07;;;18.80;99.90;;;;;;4905261;29;20106;-83
2023/08/15 03:24:15;;;;;;;8.35;5.50;;;18.80;99.90;;;;;;4906775;29;20070;-81
2023/08/15 03:26:42;;;;;;;7.95;5.45;;;18.80;99.90;;;;;;4909629;29;20032;-82
2023/08/15 03:29:07;;;;;;;6.75;4.45;;;18.80;99.90;;;;;;4907467;29;20062;-81
2023/08/15 03:31:33;;;;;;;8.38;5.35;;;18.80;99.90;;;;;;4907784;29;20567;-81
2023/08/15 03:33:59;;;;;;;6.35;5.18;;;18.80;99.90;;;;;;4904274;29;20044;-81
2023/08/15 03:36:25;;;;;;;7.13;5.15;;;18.80;99.90;;;;;;4907471;29;20059;-81
2023/08/15 03:38:50;;;;;;;5.10;4.60;;;18.80;99.90;;;;;;4909830;29;20303;-82
2023/08/15 03:41:16;;;;;;;7.35;4.80;;;18.80;99.90;;;;;;4906177;29;20036;-81
2023/08/15 03:43:41;;;;;;;7.00;4.85;;;18.80;99.90;;;;;;4903830;29;20488;-82
2023/08/15 03:46:07;;;;;;;6.75;5.68;;;18.80;99.90;;;;;;4900743;29;20032;-81
2023/08/15 03:48:33;;;;;;;5.82;5.20;;;18.80;99.90;;;;;;4901627;29;20040;-81
2023/08/15 03:50:59;;;;;;;6.85;5.10;;;18.80;99.90;;;;;;4901115;29;20131;-82
2023/08/15 03:53:25;;;;;;;7.68;5.20;;;18.80;99.90;;;;;;4903950;29;20025;-82
2023/08/15 03:55:52;;;;;;;6.45;4.97;;;18.80;99.90;;;;;;4904885;29;20066;-82
2023/08/15 03:58:18;;;;;;;8.75;5.05;;;18.80;99.90;;;;;;4905727;29;20039;-81
2023/08/15 04:00:48;;;;;;;7.05;4.88;;;18.80;99.90;;;;;;4905057;29;20047;-82
2023/08/15 04:03:14;;;;;;;11.27;4.75;;;18.80;99.90;;;;;;4906798;29;20028;-79
2023/08/15 04:05:42;;;;;;;10.80;5.50;;;18.80;99.90;;;;;;4904218;29;20044;-78
2023/08/15 04:08:08;;;;;;;7.38;5.60;;;18.80;99.90;;;;;;4904136;29;20028;-78
2023/08/15 04:10:39;;;;;;;7.55;5.00;;;18.70;99.90;;;;;;4906411;29;20040;-79
2023/08/15 04:13:08;;;;;;;8.50;5.07;;;18.70;99.90;;;;;;4904228;29;20040;-79
2023/08/15 04:15:37;;;;;;;5.47;4.85;;;18.70;99.90;;;;;;4906082;29;20038;-79
2023/08/15 04:18:08;;;;;;;8.77;5.20;;;18.70;99.90;;;;;;4902225;29;20039;-79
2023/08/15 04:20:38;;;;;;;7.93;4.60;;;18.70;99.90;;;;;;4902735;29;20563;-78
2023/08/15 04:23:04;;;;;;;8.98;4.90;;;18.70;99.90;;;;;;4903809;29;20032;-78
2023/08/15 04:25:30;;;;;;;7.93;4.82;;;18.70;99.90;;;;;;4902487;29;20036;-79
2023/08/15 04:27:55;;;;;;;5.47;4.45;;;18.70;99.90;;;;;;4902472;29;20034;-78
2023/08/15 04:30:22;;;;;;;6.57;5.53;;;18.70;99.90;;;;;;4903471;29;20048;-79
2023/08/15 04:32:48;;;;;;;8.48;4.60;;;18.70;99.90;;;;;;4905030;29;20028;-78
2023/08/15 04:35:14;;;;;;;6.25;5.00;;;18.70;99.90;;;;;;4905826;29;20093;-79
2023/08/15 04:37:40;;;;;;;6.30;4.60;;;18.70;99.90;;;;;;4905632;29;20024;-79
2023/08/15 04:40:10;;;;;;;8.55;5.32;;;18.70;99.90;;;;;;4903854;29;20930;-79
2023/08/15 04:42:36;;;;;;;6.38;5.00;;;18.70;99.90;;;;;;4902002;29;20036;-78
2023/08/15 04:45:02;;;;;;;7.22;4.80;;;18.70;99.90;;;;;;4906173;29;20039;-79
2023/08/15 04:47:28;;;;;;;9.63;4.95;;;18.70;99.90;;;;;;4902587;29;20124;-81
2023/08/15 04:49:53;;;;;;;7.22;5.25;;;18.80;99.90;;;;;;4903142;29;20044;-81
2023/08/15 04:52:19;;;;;;;5.97;4.93;;;18.70;99.90;;;;;;4902669;29;20069;-80
2023/08/15 04:54:44;;;;;;;5.63;5.10;;;18.80;99.90;;;;;;4902405;29;20206;-80
2023/08/15 04:57:10;;;;;;;7.03;4.68;;;18.80;99.90;;;;;;4901460;29;20033;-81
2023/08/15 04:59:35;;;;;;;5.80;4.93;;;18.80;99.90;;;;;;4898873;29;20747;-80
2023/08/15 05:02:01;;;;;;;6.80;4.80;;;18.80;99.90;;;;;;4899974;29;20522;-80
2023/08/15 05:04:26;;;;;;;10.18;5.38;;;18.90;99.90;;;;;;4900092;29;21375;-79
2023/08/15 05:06:52;;;;;;;6.65;5.05;;;18.90;99.90;;;;;;4900320;29;20391;-80
2023/08/15 05:09:17;;;;;;;7.72;4.63;;;19.00;99.90;;;;;;4902065;29;20491;-80
2023/08/15 05:11:45;;;;;;;7.68;4.88;;;19.00;99.90;;;;;;4902436;29;20064;-81
2023/08/15 05:14:11;;;;;;;4.80;4.40;;;19.00;99.90;;;;;;4901631;29;20871;-81
2023/08/15 05:16:37;;;;;;;9.05;5.15;;;19.10;99.90;;;;;;4898649;29;20054;-78
2023/08/15 05:19:02;;;;;;;7.55;5.35;;;19.10;99.90;;;;;;4900442;29;20032;-78
2023/08/15 05:21:28;;;;;;;5.95;5.03;;;19.20;99.90;;;;;;4899633;29;20032;-78
2023/08/15 05:23:54;;;;;;;9.90;4.90;;;19.30;99.90;;;;;;4899031;29;20045;-79
2023/08/15 05:26:19;;;;;;;8.00;4.78;;;19.30;99.90;;;;;;4900724;29;20036;-78
2023/08/15 05:28:45;;;;;;;5.88;4.82;;;19.40;99.90;;;;;;4901985;29;20425;-78
2023/08/15 05:31:10;;;;;;;5.32;4.82;;;19.50;99.90;;;;;;4898689;29;20382;-76
2023/08/15 05:33:36;;;;;;;5.85;4.70;;;19.60;99.90;;;;;;4897949;29;20963;-79
2023/08/15 05:36:01;;;;;;;8.70;4.75;;;19.70;99.90;;;;;;4901068;29;20085;-78
2023/08/15 05:38:27;;;;;;;5.07;4.50;;;19.80;99.90;;;;;;4903290;29;20025;-77
2023/08/15 05:40:53;;;;;;;5.25;4.10;;;19.90;99.90;;;;;;4902138;29;20039;-78
2023/08/15 05:43:18;;;;;;;5.90;4.32;;;19.90;99.90;;;;;;4903898;29;20037;-78
2023/08/15 05:45:48;;;;;;;8.65;4.03;;;20.00;99.90;;;;;;4906523;29;20051;-80
2023/08/15 05:48:13;;;;;;;6.45;4.07;;;20.10;99.90;;;;;;4904431;29;20386;-79
2023/08/15 05:50:39;;;;;;;5.15;3.92;;;20.20;99.90;;;;;;4904818;29;20032;-78
2023/08/15 05:53:04;;;;;;;8.82;4.18;;;20.30;99.90;;;;;;4905167;29;20040;-80
2023/08/15 05:55:30;;;;;;;6.55;4.30;;;20.40;99.90;;;;;;4905205;29;20800;-78
2023/08/15 05:57:55;;;;;;;7.63;4.55;;;20.50;99.90;;;;;;4903619;29;20514;-79
2023/08/15 06:00:21;;;;;;;8.05;3.92;;;20.70;99.90;;;;;;4904744;29;20032;-79
2023/08/15 06:02:47;;;;;;;4.32;3.92;;;20.80;99.90;;;;;;4907239;29;20055;-78
2023/08/15 06:05:12;;;;;;;5.30;4.13;;;21.00;99.90;;;;;;4905237;29;20046;-79
2023/08/15 06:07:38;;;;;;;9.07;4.57;;;21.20;99.90;;;;;;4905205;29;20032;-80
2023/08/15 06:10:04;;;;;;;5.40;4.20;;;21.40;99.90;;;;;;4907029;29;20028;-78
2023/08/15 06:12:29;;;;;;;12.55;4.65;;;21.60;99.90;;;;;;4905724;29;20483;-79
2023/08/15 06:14:55;;;;;;;11.05;4.43;;;21.70;99.90;;;;;;4906292;29;20029;-78
2023/08/15 06:17:21;;;;;;;5.47;4.07;;;21.90;99.90;;;;;;4904807;29;20138;-80
2023/08/15 06:19:46;;;;;;;8.43;3.90;;;22.10;99.90;;;;;;4905078;29;20155;-79
2023/08/15 06:22:12;;;;;;;4.95;3.45;;;22.30;99.90;;;;;;4903974;29;20037;-80
2023/08/15 06:24:37;;;;;;;5.03;3.33;;;22.40;99.90;;;;;;4903053;29;20129;-78
2023/08/15 06:27:03;;;;;;;4.97;3.50;;;22.60;99.90;;;;;;4907272;29;20024;-79
2023/08/15 06:29:28;;;;;;;5.75;3.40;;;22.70;99.90;;;;;;4903769;29;20123;-81
2023/08/15 06:31:54;;;;;;;5.60;3.17;;;22.90;99.90;;;;;;4902824;29;20049;-80
2023/08/15 06:34:19;;;;;;;4.70;3.10;;;23.00;99.90;;;;;;4903783;29;20056;-78
2023/08/15 06:36:45;;;;;;;3.85;2.97;;;23.00;99.90;;;;;;4902129;29;20449;-78
2023/08/15 06:39:11;;;;;;;5.88;3.00;;;23.10;99.90;;;;;;4900942;29;20025;-78
2023/08/15 06:41:37;;;;;;;5.10;3.10;;;23.10;99.90;;;;;;4905431;29;20071;-79
2023/08/15 06:44:03;;;;;;;6.28;3.83;;;23.20;99.90;;;;;;4904549;29;20029;-78
2023/08/15 06:46:28;;;;;;;5.95;3.22;;;23.30;99.90;;;;;;4901327;29;20055;-78
2023/08/15 06:48:54;;;;;;;5.75;3.50;;;23.40;99.90;;;;;;4900435;29;20037;-79
2023/08/15 06:51:20;;;;;;;6.00;3.60;;;23.50;99.90;;;;;;4903029;29;20025;-78
2023/08/15 06:53:45;;;;;;;3.72;3.15;;;23.60;99.90;;;;;;4901831;29;20043;-79
2023/08/15 06:56:11;;;;;;;5.32;3.20;;;23.60;99.90;;;;;;4901439;29;20051;-78
2023/08/15 06:58:37;;;;;;;6.65;3.38;;;23.60;99.90;;;;;;4902946;29;20023;-78
2023/08/15 07:01:03;;;;;;;4.70;3.15;;;23.70;99.90;;;;;;4901505;29;20165;-78
2023/08/15 07:03:28;;;;;;;5.45;3.30;;;23.80;99.90;;;;;;4902237;29;20118;-79
2023/08/15 07:05:54;;;;;;;6.72;3.17;;;23.80;99.90;;;;;;4904088;29;20092;-78
2023/08/15 07:08:20;;;;;;;5.00;3.33;;;23.90;99.90;;;;;;4902123;29;20880;-78
2023/08/15 07:10:45;;;;;;;3.35;2.95;;;23.90;99.90;;;;;;4900659;29;20032;-78
2023/08/15 07:13:11;;;;;;;3.22;2.83;;;23.90;99.90;;;;;;4900674;29;20028;-79
2023/08/15 07:15:37;;;;;;;6.50;3.00;;;24.00;99.90;;;;;;4897469;29;20088;-78
2023/08/15 07:18:03;;;;;;;8.02;2.72;;;24.10;99.90;;;;;;4900721;29;20028;-78
2023/08/15 07:20:28;;;;;;;3.95;3.10;;;24.10;99.90;;;;;;4901554;29;21196;-78
2023/08/15 07:22:55;;;;;;;4.88;3.08;;;24.20;99.90;;;;;;4899132;29;20060;-79
2023/08/15 07:25:20;;;;;;;3.97;3.05;;;24.30;99.90;;;;;;4898568;29;20031;-79
2023/08/15 07:27:46;;;;;;;4.95;3.40;;;24.30;99.90;;;;;;4897618;29;20372;-79
2023/08/15 07:30:12;;;;;;;6.22;3.53;;;24.30;99.90;;;;;;4898964;29;20511;-79
2023/08/15 07:32:38;;;;;;;6.20;3.30;;;24.40;99.90;;;;;;4898175;29;20032;-79
2023/08/15 07:35:10;;;;;;;5.30;3.10;;;24.40;99.90;;;;;;4897983;29;20041;-79
2023/08/15 07:37:35;;;;;;;6.20;3.10;;;24.50;99.90;;;;;;4899936;29;20059;-79
2023/08/15 07:40:07;;;;;;;7.07;3.10;;;24.50;99.90;;;;;;4897870;29;20120;-78
2023/08/15 07:42:34;;;;;;;6.05;3.53;;;24.60;99.90;;;;;;4898691;29;20060;-81
2023/08/15 07:44:59;;;;;;;6.65;3.65;;;24.70;99.90;;;;;;4898562;29;21022;-77
2023/08/15 07:47:25;;;;;;;7.28;3.58;;;24.70;99.90;;;;;;4897377;29;20039;-82
2023/08/15 07:50:18;;;;;;;5.15;2.88;;;24.80;99.90;;;;;;4896114;29;20040;-77
2023/08/15 07:52:44;;;;;;;4.70;3.50;;;24.90;99.90;;;;;;4897431;29;20142;-77
2023/08/15 07:55:11;;;;;;;4.78;3.60;;;25.00;99.90;;;;;;4895801;29;20039;-78
2023/08/15 07:57:36;;;;;;;5.88;3.70;;;25.10;99.90;;;;;;4894781;29;20039;-77
2023/08/15 08:00:03;;;;;;;8.27;4.45;;;25.20;99.90;;;;;;4896376;29;20024;-77
2023/08/15 08:02:29;;;;;;;7.93;3.92;;;25.20;99.90;;;;;;4897038;29;20040;-77
2023/08/15 08:04:55;;;;;;;5.90;3.80;;;25.30;99.90;;;;;;4895346;29;20043;-76
2023/08/15 08:07:20;;;;;;;4.63;3.72;;;25.40;99.90;;;;;;4895443;29;20040;-75
2023/08/15 08:09:46;;;;;;;6.88;3.78;;;25.50;99.90;;;;;;4895898;29;20032;-76
2023/08/15 08:12:12;;;;;;;6.03;4.40;;;25.50;99.90;;;;;;4895855;29;20412;-76
2023/08/15 08:14:37;;;;;;;7.55;3.90;;;25.50;99.90;;;;;;4895858;29;20035;-77
2023/08/15 08:17:03;;;;;;;7.45;4.07;;;25.50;99.90;;;;;;4895086;29;20075;-77
2023/08/15 08:19:28;;;;;;;6.63;3.53;;;25.50;99.90;;;;;;4894017;29;20127;-76
2023/08/15 08:21:54;;;;;;;7.05;4.05;;;25.50;99.90;;;;;;4896174;29;20038;-77
2023/08/15 08:24:19;;;;;;;6.55;4.20;;;25.50;99.90;;;;;;4894396;29;20251;-77
2023/08/15 08:26:45;;;;;;;6.22;3.83;;;25.60;99.90;;;;;;4895277;29;20036;-76
2023/08/15 08:29:11;;;;;;;8.77;4.13;;;25.60;99.90;;;;;;4892909;29;20420;-76
2023/08/15 08:31:39;;;;;;;7.65;3.83;;;25.70;99.90;;;;;;4897885;29;20029;-76
2023/08/15 08:34:13;;;;;;;4.68;3.72;;;25.90;99.90;;;;;;4896668;29;20579;-76
2023/08/15 08:36:40;;;;;;;4.53;4.03;;;25.90;99.90;;;;;;4892296;29;20063;-76
2023/08/15 08:39:07;;;;;;;5.25;3.90;;;26.00;99.90;;;;;;4893598;29;20043;-75
2023/08/15 08:41:35;;;;;;;4.50;3.65;;;26.00;99.90;;;;;;4895305;29;20104;-76
2023/08/15 08:44:01;;;;;;;5.20;4.00;;;26.10;99.90;;;;;;4895936;29;20044;-76
2023/08/15 08:46:28;;;;;;;7.28;3.85;;;26.10;99.90;;;;;;4893535;29;20064;-76
2023/08/15 08:48:59;;;;;;;7.40;4.30;;;26.20;99.90;;;;;;4892250;29;20040;-75
2023/08/15 08:51:26;;;;;;;6.53;4.00;;;26.20;99.90;;;;;;4893879;29;20028;-75
2023/08/15 08:53:52;;;;;;;6.70;4.30;;;26.20;99.90;;;;;;4893393;29;20036;-76
2023/08/15 08:56:18;;;;;;;7.35;4.38;;;26.30;99.90;;;;;;4894104;29;20028;-76
2023/08/15 08:58:49;;;;;;;6.95;4.10;;;26.40;99.90;;;;;;4889461;29;20032;-76
2023/08/15 09:01:15;;;;;;;5.97;4.20;;;26.50;99.90;;;;;;4894405;29;20039;-76
2023/08/15 09:03:41;;;;;;;5.75;4.50;;;26.60;99.90;;;;;;4895912;29;20024;-76
2023/08/15 09:06:07;;;;;;;8.55;3.97;;;26.60;99.90;;;;;;4892473;29;20097;-76
2023/08/15 09:08:33;;;;;;;5.82;4.57;;;26.70;99.90;;;;;;4894214;29;20028;-76
2023/08/15 09:10:58;;;;;;;6.55;4.60;;;26.90;99.90;;;;;;4899038;29;20243;-76
2023/08/15 09:13:24;;;;;;;4.63;4.13;;;27.10;99.90;;;;;;4898437;29;20027;-76
2023/08/15 09:15:51;;;;;;;10.65;5.20;;;27.20;99.90;;;;;;4898581;29;20090;-76
2023/08/15 09:18:22;;;;;;;6.40;4.38;;;27.30;99.90;;;;;;4897423;29;20064;-76
2023/08/15 09:20:48;;;;;;;7.38;4.10;;;27.40;99.90;;;;;;4896128;29;20400;-76
2023/08/15 09:23:15;;;;;;;7.78;4.40;;;27.60;99.90;;;;;;4897525;29;20055;-76
2023/08/15 09:25:41;;;;;;;5.63;4.35;;;27.70;99.90;;;;;;4898258;29;20055;-76
2023/08/15 09:28:06;;;;;;;7.13;4.53;;;27.90;99.90;;;;;;4895875;29;20028;-76
2023/08/15 09:30:32;;;;;;;8.40;4.82;;;28.10;99.90;;;;;;4897567;29;22189;-77
2023/08/15 09:33:01;;;;;;;6.15;4.20;;;28.40;99.90;;;;;;4896056;29;20033;-77
2023/08/15 09:35:26;;;;;;;6.65;3.92;;;28.50;99.90;;;;;;4894056;29;20111;-77
2023/08/15 09:37:53;;;;;;;5.07;4.18;;;28.70;99.90;;;;;;4893815;29;20119;-74
2023/08/15 09:40:24;;;;;;;6.63;4.15;;;28.90;99.90;;;;;;4897033;29;20037;-75
2023/08/15 09:42:51;;;;;;;6.20;4.13;;;29.20;99.90;;;;;;4896704;29;21799;-75
2023/08/15 09:45:17;;;;;;;10.60;4.90;;;29.40;99.90;;;;;;4896882;29;20170;-75
2023/08/15 09:47:44;;;;;;;5.35;4.35;;;29.60;99.90;;;;;;4894096;29;20028;-74
2023/08/15 09:50:14;;;;;;;5.32;4.28;;;29.80;99.90;;;;;;4893618;29;20032;-75
2023/08/15 09:52:42;;;;;;;5.57;4.25;;;29.90;99.90;;;;;;4895944;29;20120;-75
2023/08/15 09:55:13;;;;;;;5.18;4.07;;;30.30;99.90;;;;;;4896732;29;20032;-75
2023/08/15 09:57:40;;;;;;;6.38;3.70;;;30.50;99.90;;;;;;4893697;29;20063;-75
2023/08/15 10:00:13;;;;;;;5.78;3.70;;;30.70;99.90;;;;;;4895757;29;20119;-75
2023/08/15 10:02:45;;;;;;;6.45;4.15;;;30.90;99.90;;;;;;4896991;29;20500;-75
2023/08/15 10:05:13;;;;;;;7.38;4.20;;;31.10;99.90;;;;;;4897634;29;20051;-76
2023/08/15 10:07:41;;;;;;;6.18;4.10;;;31.10;99.90;;;;;;4896614;29;20036;-76
2023/08/15 10:10:09;;;;;;;5.25;4.20;;;31.10;99.90;;;;;;4897852;29;20519;-76
2023/08/15 10:12:36;;;;;;;6.07;3.80;;;31.10;99.90;;;;;;4899754;29;20108;-76
2023/08/15 10:15:02;;;;;;;6.45;3.78;;;31.00;99.90;;;;;;4896160;29;20040;-76
2023/08/15 10:17:29;;;;;;;4.88;3.97;;;31.00;99.90;;;;;;4896908;29;20036;-76
2023/08/15 10:20:05;;;;;;;5.60;4.05;;;31.10;99.90;;;;;;4897552;29;20029;-76
2023/08/15 10:22:33;;;;;;;5.53;4.03;;;31.30;99.90;;;;;;4895560;29;20036;-76
2023/08/15 10:25:20;;;;;;;7.05;4.03;;;31.40;99.90;;;;;;4897482;29;20033;-77
2023/08/15 10:27:51;;;;;;;5.53;3.53;;;31.30;99.90;;;;;;4898798;29;20111;-76
2023/08/15 10:30:33;;;;;;;4.55;3.70;;;31.30;99.90;;;;;;4898740;29;20039;-79
2023/08/15 10:33:13;;;;;;;6.95;3.88;;;31.50;99.90;;;;;;4896201;29;20036;-77
2023/08/15 10:35:54;;;;;;;5.53;3.70;;;31.70;99.90;;;;;;4895882;29;20078;-77
2023/08/15 10:38:27;;;;;;;5.85;3.30;;;31.60;99.90;;;;;;4896783;29;21469;-75
2023/08/15 10:41:01;;;;;;;4.30;3.90;;;31.70;99.90;;;;;;4896749;29;20695;-75
2023/08/15 10:43:30;;;;;;;5.35;3.78;;;31.70;99.90;;;;;;4896240;29;20064;-75
2023/08/15 10:46:01;;;;;;;4.30;3.70;;;31.80;99.90;;;;;;4896034;29;20038;-80
2023/08/15 10:48:37;;;;;;;8.43;4.00;;;32.00;99.90;;;;;;4896198;29;20039;-80
2023/08/15 10:51:04;;;;;;;6.80;4.18;;;32.00;99.90;;;;;;4899198;29;20044;-81
2023/08/15 10:53:30;;;;;;;5.88;4.13;;;32.00;99.90;;;;;;4898517;29;20496;-80
2023/08/15 10:55:58;;;;;;;7.07;3.78;;;32.20;99.90;;;;;;4897533;29;20043;-80
2023/08/15 10:58:25;;;;;;;6.00;3.58;;;32.00;99.90;;;;;;4896303;29;20031;-80
2023/08/15 11:00:51;;;;;;;5.43;3.63;;;32.10;99.90;;;;;;4897839;29;20496;-80
2023/08/15 11:03:17;;;;;;;7.10;3.65;;;32.10;99.90;;;;;;4897730;29;20559;-80
2023/08/15 11:05:42;;;;;;;6.53;3.35;;;32.30;99.90;;;;;;4897126;29;20036;-80
2023/08/15 11:08:16;;;;;;;5.72;3.40;;;32.30;99.90;;;;;;4896625;29;20031;-80
2023/08/15 11:10:48;;;;;;;9.35;3.83;;;32.20;99.90;;;;;;4898581;29;20470;-80
2023/08/15 11:13:15;;;;;;;8.13;3.63;;;32.30;99.90;;;;;;4899055;29;20028;-80
2023/08/15 11:15:41;;;;;;;8.13;3.25;;;32.40;99.90;;;;;;4900622;29;20051;-80
2023/08/15 11:18:06;;;;;;;9.32;3.53;;;32.30;99.90;;;;;;4899047;29;20029;-80
2023/08/15 11:20:33;;;;;;;9.15;3.35;;;32.40;99.90;;;;;;4898846;29;20134;-79
2023/08/15 11:22:58;;;;;;;7.15;2.75;;;32.40;99.90;;;;;;4901043;29;20444;-80
2023/08/15 11:25:24;;;;;;;4.20;3.03;;;32.40;99.90;;;;;;4900891;29;20033;-80
2023/08/15 11:27:50;;;;;;;6.60;2.90;;;32.40;99.90;;;;;;4901168;29;20036;-80
2023/08/15 11:30:17;;;;;;;10.40;3.58;;;32.50;99.90;;;;;;4899650;29;20272;-80
2023/08/15 11:32:42;;;;;;;8.45;3.25;;;32.70;99.90;;;;;;4900259;29;20020;-80
2023/08/15 11:35:09;;;;;;;5.68;2.95;;;32.90;99.90;;;;;;4898613;29;20031;-80
2023/08/15 11:37:36;;;;;;;7.25;3.10;;;33.10;99.90;;;;;;4900251;29;20111;-81
2023/08/15 11:40:02;;;;;;;6.03;3.47;;;33.30;99.90;;;;;;4900942;29;21583;-81
2023/08/15 11:42:29;;;;;;;7.28;3.35;;;33.30;99.90;;;;;;4901836;29;20139;-80
2023/08/15 11:45:09;;;;;;;8.00;3.63;;;33.40;99.90;;;;;;4899044;29;20031;-80
2023/08/15 11:47:35;;;;;;;10.77;3.33;;;33.30;99.90;;;;;;4899885;29;20043;-80
2023/08/15 11:50:10;;;;;;;8.13;3.03;;;33.30;99.90;;;;;;4900685;29;20041;-80
2023/08/15 11:52:42;;;;;;;8.20;2.67;;;33.20;99.90;;;;;;4899622;29;20032;-80
2023/08/15 11:55:09;;;;;;;9.77;3.25;;;33.30;99.90;;;;;;4899668;29;20047;-80
2023/08/15 11:57:35;;;;;;;7.40;2.40;;;33.50;99.90;;;;;;4899007;29;20037;-80
2023/08/15 12:00:01;;;;;;;8.07;2.80;;;33.70;99.90;;;;;;4899910;29;20047;-80
2023/08/15 12:02:27;;;;;;;7.60;2.72;;;33.70;99.90;;;;;;4898968;29;20084;-80
2023/08/15 12:04:53;;;;;;;6.32;2.35;;;33.70;99.90;;;;;;4898205;29;20036;-80
2023/08/15 12:07:21;;;;;;;7.93;2.90;;;33.80;99.90;;;;;;4900543;29;20084;-80
2023/08/15 12:09:47;;;;;;;6.18;2.85;;;34.00;99.90;;;;;;4899334;29;20052;-80
2023/08/15 12:12:19;;;;;;;8.48;2.65;;;33.90;99.90;;;;;;4898754;29;20036;-81
2023/08/15 12:14:45;;;;;;;9.30;3.05;;;34.00;99.90;;;;;;4898439;29;20737;-80
2023/08/15 12:17:10;;;;;;;8.93;2.75;;;34.00;99.90;;;;;;4897023;29;20040;-80
2023/08/15 12:19:36;;;;;;;12.90;3.20;;;34.10;99.90;;;;;;4898887;29;20156;-80
2023/08/15 12:22:02;;;;;;;7.18;2.78;;;34.20;99.90;;;;;;4899487;29;20035;-80
2023/08/15 12:24:28;;;;;;;6.97;2.70;;;34.10;98.40;;;;;;4898941;29;20120;-80
2023/08/15 12:26:54;;;;;;;12.52;2.83;;;34.40;97.90;;;;;;4897812;29;20135;-80
2023/08/15 12:29:19;;;;;;;7.45;2.50;;;34.40;98.70;;;;;;4896972;29;20029;-80
2023/08/15 12:31:45;;;;;;;12.90;3.45;;;34.30;97.60;;;;;;4897197;29;20056;-81
2023/08/15 12:34:10;;;;;;;7.32;2.97;;;34.60;96.20;;;;;;4896427;29;20024;-80
2023/08/15 12:36:36;;;;;;;9.27;2.88;;;34.70;96.80;;;;;;4895183;29;20060;-80
2023/08/15 12:39:02;;;;;;;10.00;2.67;;;34.50;97.60;;;;;;4897102;29;20536;-80
2023/08/15 12:41:28;;;;;;;12.20;2.72;;;34.60;97.20;;;;;;4897340;29;20028;-80
2023/08/15 12:43:54;;;;;;;8.35;3.10;;;34.60;96.70;;;;;;4895835;29;21084;-80